Hlavní strana
METAR-TAF:

METAR-TAF

Letiště :

Franklin Municipal-John Beverly Rose Airport

Franklin, Virginie, Spojené státy americké

zeměpisná šířka: 36-42N, zeměpisná délka: 076-54W, výška: 12 m

Aktuální stav počasí

Zpráva byla vytvořena před 19 minutami, v 13:35 UTC
Severoseverovýchodní vítr 5 kt
Teplota 19°C
Vlhkost vzduchu 94%
Tlak 1023 hPa
Viditelnost: 16.1 km
Zataženo ve výšce 700 ft

METAR: KFKN 261335Z AUTO 02005KT 10SM OVC007 19/18 A3021 RMK AO2 T01860183

Čas: 09:54 (13:54 UTC)


TAF: chybějící

Stav a předpovědi počasí z více než 4 000 letišť (zprávy METAR a TAF).

Červené a žluté tečky na mapě představují dostupné meteorologické stanice.

Když kurzor umístíte na tečku, zobrazí se název stanice.

Pak kliknutím zobrazíte stav a předpověď počasí.

Chcete-li změnit mapu, kliknutím na zelené tlačítko se znaménkem +mapu přiblížíte, kliknutím na zelené tlačítko se znaménkem – mapu oddálíte a kliknutím na zelené šipky přejdete na sousední mapy.


METAR-TAF: